Wintergreen, VA

6:27 AM EDT on October 24, 2014 (GMT -0400)
Lynchburg Regional-Glenn | Change Station
CLOSE
Current Station
Airport
Location: Lynchburg,
Elevation: 935 ft
Nearby Weather Stations

Elev 935 ft 37.33 °N, 79.20 °W | Updated 33 minutes ago

Partly Cloudy
Partly Cloudy
41 °F
Feels Like 41 °F
N
0
Wind Variable Wind from North

Today
High -- | Low -- °F
--% Chance of Precip.
Yesterday
High -- | Low -- °F
Precip. -- in
7:32 AM 6:26 PM
New Moon, 0% visible
Pressure 30.03 in
Visibility 10.0 miles
Clouds Clear
Dew Point 39 °F
Humidity 93%
Rainfall 0.00 in
Snow Depth Not available.
UV 0 out of 12
Pollen 2.20 out of 12
Air Quality Not available.
Flu Activity Local Activity
METAR KLYH 240954Z AUTO 00000KT 10SM CLR 05/04 A3003 RMK AO2 SLP169 T00500039

More Conditions Fewer Conditions

Pressure 30.03 in
Visibility 10.0 miles
Clouds Clear
Dew Point 39 °F
Humidity 93%
Rainfall 0.00 in
Snow Depth Not available.
UV 0 out of 12
Pollen 2.20 out of 12
Air Quality Not available.
Flu Activity Local Activity
METAR KLYH 240954Z AUTO 00000KT 10SM CLR 05/04 A3003 RMK AO2 SLP169 T00500039

More Conditions Fewer Conditions

10-Day Weather Forecast

Almanac

Astronomy

Oct. 24, 2014 Rise Set
Actual Time 7:32 AM EDT 6:26 PM EDT
Civil Twilight 7:05 AM EDT 6:52 PM EDT
Nautical Twilight 6:35 AM EDT 7:23 PM EDT
Astronomical Twilight 6:04 AM EDT 7:53 PM EDT
Moon 8:09 AM EDT 7:05 PM EDT
Length of Visible Light 11h 46m
Length of Day
10h 53m
Tomorrow will be 2m 16s shorter.
New Moon, 0% of the Moon is Illuminated
Today
New Moon
Oct 30
First Quarter
Nov 6
Full
Nov 14
Last Quarter
Nov 22
New

Today's Extremes

State Highs State Lows

Community

WunderPhotos

Upload Photos

1,764,513 photos uploaded!

WunderBlogs® & News

Nearby

Snow Depth

Station Depth Elevation
No new snow has been reported.

Earthquake Activity

City Distance Mag. Time & Date
No recent earthquake activity has been reported nearby.
Minimum magnitude displayed is 2.5.

Coastal Water Temperatures

Place Temperature
No Stations Reporting

Nearby Weather Stations